Time;durP1;ratioP1;P1;durP2;ratioP2;P2;SDS_P1;SDS_P2;PMS_P1;PMS_P2;Temp;Humidity;BMP_temperature;BMP_pressure;BME280_temperature;BME280_humidity;BME280_pressure;Samples;Min_cycle;Max_cycle;Signal;HPM_P1;HPM_P2
2021/09/29 00:00:47;;;;;;;4.57;3.15;;;19.30;76.80;;;;;;4207832;28;20097;-59
2021/09/29 00:03:13;;;;;;;3.78;2.55;;;19.30;76.60;;;;;;4219014;27;20573;-59
2021/09/29 00:05:38;;;;;;;4.85;2.88;;;19.30;76.80;;;;;;4224408;27;20116;-58
2021/09/29 00:08:01;;;;;;;7.63;3.22;;;19.30;77.10;;;;;;4208587;27;20124;-60
2021/09/29 00:10:24;;;;;;;4.20;2.80;;;19.30;77.40;;;;;;4207960;28;20052;-59
2021/09/29 00:12:46;;;;;;;5.82;3.15;;;19.30;77.20;;;;;;4207300;28;20079;-59
2021/09/29 00:15:13;;;;;;;6.90;2.90;;;19.20;77.10;;;;;;4207390;28;20158;-59
2021/09/29 00:17:35;;;;;;;7.30;3.17;;;19.20;77.00;;;;;;4207450;28;20059;-59
2021/09/29 00:19:59;;;;;;;5.78;2.78;;;19.20;77.00;;;;;;4207716;28;20662;-59
2021/09/29 00:22:21;;;;;;;9.55;3.10;;;19.20;77.10;;;;;;4223523;27;20141;-59
2021/09/29 00:24:43;;;;;;;4.18;2.90;;;19.20;77.80;;;;;;4224178;28;20043;-59
2021/09/29 00:27:05;;;;;;;5.32;2.92;;;19.20;77.10;;;;;;4223962;28;20066;-59
2021/09/29 00:29:27;;;;;;;4.00;2.55;;;19.20;77.40;;;;;;4224482;28;20051;-60
2021/09/29 00:31:49;;;;;;;7.72;2.65;;;19.20;77.00;;;;;;4224414;28;20047;-60
2021/09/29 00:34:12;;;;;;;5.40;2.78;;;19.20;76.80;;;;;;4224151;27;20044;-60
2021/09/29 00:36:36;;;;;;;4.00;2.40;;;19.20;76.90;;;;;;4226659;27;20509;-60
2021/09/29 00:38:58;;;;;;;4.47;2.97;;;19.20;76.90;;;;;;4227153;27;20052;-60
2021/09/29 00:41:21;;;;;;;3.35;2.35;;;19.20;77.10;;;;;;4227339;27;20122;-59
2021/09/29 00:43:43;;;;;;;4.55;2.97;;;19.20;76.90;;;;;;4227226;28;20052;-59
2021/09/29 00:46:05;;;;;;;4.93;2.83;;;19.10;78.00;;;;;;4227543;27;20413;-60
2021/09/29 00:48:27;;;;;;;7.28;3.03;;;19.10;77.20;;;;;;4227338;27;20482;-58
2021/09/29 00:50:50;;;;;;;5.93;3.15;;;19.20;77.40;;;;;;4226936;27;20043;-59
2021/09/29 00:53:14;;;;;;;6.05;3.20;;;19.10;77.20;;;;;;4227142;27;20047;-59
2021/09/29 00:55:36;;;;;;;5.40;2.58;;;19.10;77.10;;;;;;4226907;27;20463;-59
2021/09/29 00:57:58;;;;;;;4.72;2.80;;;19.10;77.20;;;;;;4226548;27;20096;-59
2021/09/29 01:00:21;;;;;;;4.93;2.63;;;19.10;77.10;;;;;;4226234;27;20100;-58
2021/09/29 01:02:43;;;;;;;5.38;3.33;;;19.10;76.90;;;;;;4210261;28;20445;-59
2021/09/29 01:05:07;;;;;;;5.53;3.30;;;19.10;77.10;;;;;;4225752;27;20126;-59
2021/09/29 01:07:35;;;;;;;5.93;3.05;;;19.10;77.20;;;;;;4225655;27;20083;-59
2021/09/29 01:10:05;;;;;;;4.53;3.03;;;19.10;77.20;;;;;;4226916;27;20088;-58
2021/09/29 01:12:35;;;;;;;3.88;2.40;;;19.10;76.80;;;;;;4209454;28;20150;-59
2021/09/29 01:15:01;;;;;;;6.28;3.38;;;19.10;76.60;;;;;;4210068;28;20169;-59
2021/09/29 01:17:26;;;;;;;7.32;3.70;;;19.10;76.90;;;;;;4209849;28;20127;-59
2021/09/29 01:20:06;;;;;;;10.38;3.63;;;19.10;77.20;;;;;;4210354;28;20052;-59
2021/09/29 01:22:42;;;;;;;8.32;3.92;;;19.10;76.50;;;;;;4226613;27;20058;-59
2021/09/29 01:25:09;;;;;;;4.35;2.85;;;19.10;76.90;;;;;;4226396;27;20052;-59
2021/09/29 01:27:36;;;;;;;5.43;3.05;;;19.10;77.20;;;;;;4226614;27;20056;-59
2021/09/29 01:29:58;;;;;;;5.78;2.80;;;19.00;77.40;;;;;;4226576;27;20756;-60
2021/09/29 01:32:22;;;;;;;5.13;3.15;;;19.00;77.10;;;;;;4226598;27;20046;-59
2021/09/29 01:34:45;;;;;;;7.10;3.50;;;19.00;77.40;;;;;;4226673;27;20051;-59
2021/09/29 01:37:09;;;;;;;5.13;3.47;;;19.00;77.40;;;;;;4226481;27;20761;-59
2021/09/29 01:39:32;;;;;;;6.85;3.22;;;19.00;77.00;;;;;;4226290;27;20150;-59
2021/09/29 01:41:54;;;;;;;4.95;3.10;;;19.00;77.00;;;;;;4226494;27;20046;-59
2021/09/29 01:44:17;;;;;;;8.88;3.30;;;19.00;77.30;;;;;;4226404;27;20042;-59
2021/09/29 01:46:39;;;;;;;11.52;3.78;;;19.00;77.30;;;;;;4226024;27;20035;-59
2021/09/29 01:49:06;;;;;;;5.95;3.42;;;19.00;77.00;;;;;;4226032;28;20056;-59
2021/09/29 01:51:29;;;;;;;8.73;3.38;;;19.00;77.00;;;;;;4226009;27;20130;-59
2021/09/29 01:53:55;;;;;;;5.72;2.85;;;18.90;77.30;;;;;;4225867;27;20485;-60
2021/09/29 01:56:18;;;;;;;7.32;3.58;;;18.90;77.10;;;;;;4225739;27;20058;-60
2021/09/29 01:58:40;;;;;;;4.50;3.05;;;18.90;76.90;;;;;;4226108;27;20414;-60
2021/09/29 02:01:04;;;;;;;7.35;4.07;;;18.90;77.00;;;;;;4226420;27;20516;-59
2021/09/29 02:03:26;;;;;;;9.10;3.90;;;18.90;77.10;;;;;;4225865;27;20116;-59
2021/09/29 02:05:50;;;;;;;5.95;3.60;;;18.90;77.10;;;;;;4226103;27;20128;-59
2021/09/29 02:08:13;;;;;;;4.35;3.40;;;18.90;76.70;;;;;;4226094;27;20051;-60
2021/09/29 02:10:35;;;;;;;8.68;3.28;;;18.90;77.60;;;;;;4225983;27;20134;-60
2021/09/29 02:12:58;;;;;;;7.78;2.90;;;18.90;77.10;;;;;;4225881;27;20059;-60
2021/09/29 02:15:21;;;;;;;7.82;3.72;;;18.90;77.50;;;;;;4225726;27;20047;-59
2021/09/29 02:17:44;;;;;;;7.40;3.60;;;18.90;77.10;;;;;;4225317;27;20412;-59
2021/09/29 02:20:07;;;;;;;6.60;3.17;;;18.90;78.00;;;;;;4225742;27;20050;-60
2021/09/29 02:22:29;;;;;;;4.70;2.80;;;18.80;77.50;;;;;;4225695;27;20043;-59
2021/09/29 02:24:51;;;;;;;6.40;2.92;;;18.80;77.20;;;;;;4225396;27;20051;-59
2021/09/29 02:27:14;;;;;;;6.03;3.35;;;18.80;77.50;;;;;;4225310;27;20157;-59
2021/09/29 02:29:36;;;;;;;8.88;3.47;;;18.80;77.50;;;;;;4225664;27;20078;-59
2021/09/29 02:31:58;;;;;;;4.53;2.90;;;18.80;77.10;;;;;;4225347;27;20063;-59
2021/09/29 02:34:22;;;;;;;6.13;3.03;;;18.80;77.30;;;;;;4225436;27;20048;-59
2021/09/29 02:36:44;;;;;;;7.40;3.20;;;18.80;77.40;;;;;;4225339;27;20117;-59
2021/09/29 02:39:06;;;;;;;5.03;2.80;;;18.80;77.30;;;;;;4225290;27;20051;-58
2021/09/29 02:41:28;;;;;;;6.65;3.42;;;18.80;77.80;;;;;;4225425;27;20542;-59
2021/09/29 02:43:50;;;;;;;7.78;2.97;;;18.80;78.50;;;;;;4225463;27;20078;-59
2021/09/29 02:46:12;;;;;;;3.15;2.88;;;18.80;77.40;;;;;;4225289;27;20481;-59
2021/09/29 02:48:34;;;;;;;6.95;3.35;;;18.80;76.80;;;;;;4225116;27;20051;-59
2021/09/29 02:50:59;;;;;;;4.28;3.05;;;18.70;78.30;;;;;;4225002;27;20105;-59
2021/09/29 02:53:21;;;;;;;4.20;2.95;;;18.80;77.30;;;;;;4225056;27;20051;-59
2021/09/29 02:55:43;;;;;;;5.07;2.92;;;18.80;77.70;;;;;;4224888;27;20052;-59
2021/09/29 02:58:05;;;;;;;6.38;3.22;;;18.70;77.10;;;;;;4224881;27;20063;-59
2021/09/29 03:00:27;;;;;;;5.60;3.25;;;18.70;77.10;;;;;;4225102;27;20101;-59
2021/09/29 03:02:49;;;;;;;7.35;3.05;;;18.70;77.00;;;;;;4225007;27;20390;-59
2021/09/29 03:05:12;;;;;;;12.02;3.55;;;18.70;76.90;;;;;;4225372;27;20527;-59
2021/09/29 03:07:35;;;;;;;7.18;2.90;;;18.70;77.10;;;;;;4225047;27;20615;-59
2021/09/29 03:09:56;;;;;;;8.05;3.40;;;18.70;76.70;;;;;;4224684;27;20040;-58
2021/09/29 03:12:19;;;;;;;4.63;3.10;;;18.70;77.40;;;;;;4224978;28;20486;-59
2021/09/29 03:14:43;;;;;;;2.85;2.65;;;18.70;77.50;;;;;;4225045;28;20151;-59
2021/09/29 03:17:05;;;;;;;5.53;3.28;;;18.70;77.20;;;;;;4224875;28;20047;-59
2021/09/29 03:19:27;;;;;;;6.40;3.33;;;18.70;77.30;;;;;;4224985;28;20552;-59
2021/09/29 03:21:49;;;;;;;3.17;2.80;;;18.70;78.50;;;;;;4224614;27;20075;-59
2021/09/29 03:24:18;;;;;;;4.68;3.58;;;18.70;77.70;;;;;;4224832;27;20512;-59
2021/09/29 03:26:40;;;;;;;6.72;3.67;;;18.70;78.10;;;;;;4224575;27;20136;-59
2021/09/29 03:29:03;;;;;;;7.90;3.47;;;18.60;78.10;;;;;;4224657;27;20050;-59
2021/09/29 03:31:25;;;;;;;6.53;3.00;;;18.60;78.80;;;;;;4224798;27;20073;-59
2021/09/29 03:33:47;;;;;;;4.97;3.08;;;18.60;77.50;;;;;;4207765;28;20126;-59
2021/09/29 03:36:09;;;;;;;8.77;3.65;;;18.60;77.90;;;;;;4210354;27;20048;-59
2021/09/29 03:38:31;;;;;;;6.15;3.60;;;18.60;78.00;;;;;;4225224;27;20054;-59
2021/09/29 03:40:55;;;;;;;4.95;3.05;;;18.60;78.10;;;;;;4224487;27;20051;-59
2021/09/29 03:43:19;;;;;;;5.55;3.03;;;18.60;77.80;;;;;;4224763;28;20051;-59
2021/09/29 03:45:41;;;;;;;6.53;3.22;;;18.60;77.90;;;;;;4224844;28;20147;-59
2021/09/29 03:48:03;;;;;;;3.92;2.70;;;18.60;78.00;;;;;;4224843;28;20066;-59
2021/09/29 03:50:25;;;;;;;5.32;3.20;;;18.60;78.20;;;;;;4224810;28;20428;-59
2021/09/29 03:52:47;;;;;;;4.30;2.75;;;18.60;78.70;;;;;;4224612;27;20058;-58
2021/09/29 03:55:13;;;;;;;6.40;3.50;;;18.60;78.90;;;;;;4224587;27;20112;-59
2021/09/29 03:57:37;;;;;;;7.22;3.38;;;18.60;78.60;;;;;;4224117;27;20078;-59
2021/09/29 03:59:59;;;;;;;6.07;3.72;;;18.60;78.80;;;;;;4224559;27;20062;-59
2021/09/29 04:02:21;;;;;;;6.13;2.97;;;18.60;78.70;;;;;;4224496;27;20050;-59
2021/09/29 04:04:44;;;;;;;3.28;2.90;;;18.60;78.40;;;;;;4224325;27;20390;-59
2021/09/29 04:07:06;;;;;;;10.48;2.97;;;18.60;78.60;;;;;;4224528;28;20099;-59
2021/09/29 04:09:28;;;;;;;4.05;3.20;;;18.60;78.40;;;;;;4224753;28;20047;-59
2021/09/29 04:11:51;;;;;;;3.70;2.92;;;18.60;78.60;;;;;;4227126;27;20055;-59
2021/09/29 04:14:15;;;;;;;5.32;3.10;;;18.60;79.50;;;;;;4227787;27;20055;-58
2021/09/29 04:16:37;;;;;;;5.60;2.92;;;18.60;78.70;;;;;;4227407;27;20494;-59
2021/09/29 04:19:00;;;;;;;3.92;3.00;;;18.60;78.80;;;;;;4227718;27;20048;-59
2021/09/29 04:21:21;;;;;;;7.93;3.20;;;18.60;78.70;;;;;;4226477;27;20047;-60
2021/09/29 04:23:44;;;;;;;3.72;2.75;;;18.60;79.00;;;;;;4227815;27;20568;-59
2021/09/29 04:26:07;;;;;;;7.38;3.50;;;18.60;78.50;;;;;;4227552;27;20132;-59
2021/09/29 04:28:29;;;;;;;6.05;3.72;;;18.60;79.00;;;;;;4227445;27;20489;-59
2021/09/29 04:30:52;;;;;;;4.20;3.42;;;18.60;78.60;;;;;;4227277;27;20463;-59
2021/09/29 04:33:14;;;;;;;5.13;3.10;;;18.60;79.00;;;;;;4227405;27;20044;-59
2021/09/29 04:35:38;;;;;;;6.10;3.75;;;18.60;79.60;;;;;;4227152;27;20184;-59
2021/09/29 04:38:00;;;;;;;4.97;3.45;;;18.60;79.40;;;;;;4195140;27;20052;-59
2021/09/29 04:40:22;;;;;;;5.88;3.65;;;18.60;79.40;;;;;;4203090;28;20494;-60
2021/09/29 04:42:44;;;;;;;5.55;3.25;;;18.60;78.60;;;;;;4210289;28;20066;-59
2021/09/29 04:45:07;;;;;;;5.47;3.83;;;18.60;79.00;;;;;;4210449;28;20419;-59
2021/09/29 04:47:31;;;;;;;4.88;2.90;;;18.60;79.00;;;;;;4210022;28;20553;-59
2021/09/29 04:49:52;;;;;;;8.27;3.38;;;18.60;79.40;;;;;;4210204;28;20508;-60
2021/09/29 04:52:15;;;;;;;7.55;3.63;;;18.60;79.00;;;;;;4210488;28;20060;-59
2021/09/29 04:54:37;;;;;;;8.05;3.47;;;18.50;79.20;;;;;;4210072;28;20167;-59
2021/09/29 04:56:59;;;;;;;5.38;3.55;;;18.60;78.80;;;;;;4210100;28;20055;-59
2021/09/29 04:59:21;;;;;;;4.93;3.05;;;18.50;79.00;;;;;;4210185;28;20491;-59
2021/09/29 05:01:45;;;;;;;4.03;3.10;;;18.50;78.90;;;;;;4209855;28;20448;-59
2021/09/29 05:04:08;;;;;;;5.82;3.38;;;18.60;78.90;;;;;;4225691;27;20039;-59
2021/09/29 05:06:32;;;;;;;5.82;3.60;;;18.50;79.10;;;;;;4226698;27;20051;-60
2021/09/29 05:08:55;;;;;;;6.47;3.75;;;18.50;78.60;;;;;;4210265;28;20044;-59
2021/09/29 05:11:21;;;;;;;5.85;3.38;;;18.50;79.10;;;;;;4210150;28;20100;-59
2021/09/29 05:13:43;;;;;;;6.43;4.03;;;18.50;78.60;;;;;;4209549;28;20142;-60
2021/09/29 05:16:06;;;;;;;6.50;4.38;;;18.50;79.50;;;;;;4216314;28;20056;-59
2021/09/29 05:18:29;;;;;;;6.47;4.03;;;18.50;79.20;;;;;;4226524;27;20455;-59
2021/09/29 05:20:53;;;;;;;3.78;3.40;;;18.50;79.50;;;;;;4226906;27;20131;-59
2021/09/29 05:23:15;;;;;;;5.55;3.35;;;18.50;78.90;;;;;;4209748;28;20474;-59
2021/09/29 05:25:37;;;;;;;4.43;3.70;;;18.50;79.50;;;;;;4209492;28;20052;-60
2021/09/29 05:28:01;;;;;;;8.75;4.03;;;18.50;79.80;;;;;;4209939;28;20059;-59
2021/09/29 05:30:23;;;;;;;4.97;4.32;;;18.50;79.10;;;;;;4210055;28;20554;-59
2021/09/29 05:32:45;;;;;;;4.35;3.63;;;18.50;78.90;;;;;;4226735;27;20625;-59
2021/09/29 05:35:08;;;;;;;6.05;3.45;;;18.50;80.30;;;;;;4226352;27;20451;-60
2021/09/29 05:37:32;;;;;;;4.60;3.97;;;18.50;79.50;;;;;;4226434;27;20097;-59
2021/09/29 05:39:53;;;;;;;4.55;3.70;;;18.50;80.00;;;;;;4226658;27;20489;-60
2021/09/29 05:42:16;;;;;;;8.40;4.25;;;18.50;80.00;;;;;;4226121;27;20130;-59
2021/09/29 05:44:39;;;;;;;5.40;4.07;;;18.50;79.50;;;;;;4226672;27;20054;-58
2021/09/29 05:47:01;;;;;;;7.10;3.33;;;18.50;79.30;;;;;;4226334;27;20508;-56
2021/09/29 05:49:24;;;;;;;4.40;3.40;;;18.50;79.90;;;;;;4209691;28;20520;-56
2021/09/29 05:51:47;;;;;;;4.00;3.60;;;18.50;79.30;;;;;;4225270;27;20047;-56
2021/09/29 05:54:10;;;;;;;4.43;3.25;;;18.50;79.70;;;;;;4210398;27;20052;-55
2021/09/29 05:56:32;;;;;;;4.05;3.63;;;18.50;79.20;;;;;;4225685;27;20059;-58
2021/09/29 05:58:54;;;;;;;7.60;3.45;;;18.50;79.10;;;;;;4223119;27;20101;-57
2021/09/29 06:01:17;;;;;;;5.82;3.90;;;18.50;79.30;;;;;;4226028;27;20764;-58
2021/09/29 06:03:39;;;;;;;6.43;4.18;;;18.40;79.20;;;;;;4225730;27;20520;-58
2021/09/29 06:06:02;;;;;;;5.72;3.97;;;18.40;79.10;;;;;;4225804;27;20043;-59
2021/09/29 06:08:24;;;;;;;5.35;3.45;;;18.40;79.20;;;;;;4225566;28;20490;-58
2021/09/29 06:10:48;;;;;;;4.75;3.45;;;18.40;79.20;;;;;;4225778;27;20233;-58
2021/09/29 06:13:10;;;;;;;7.93;3.95;;;18.40;78.70;;;;;;4225877;27;20410;-58
2021/09/29 06:15:33;;;;;;;5.88;4.00;;;18.40;78.80;;;;;;4225884;27;20486;-58
2021/09/29 06:17:58;;;;;;;5.22;3.63;;;18.40;79.00;;;;;;4225985;27;20548;-58
2021/09/29 06:20:19;;;;;;;5.20;3.38;;;18.40;79.10;;;;;;4226245;27;21400;-59
2021/09/29 06:22:42;;;;;;;6.30;4.07;;;18.40;79.20;;;;;;4226022;27;20055;-60
2021/09/29 06:25:06;;;;;;;4.38;3.53;;;18.40;78.50;;;;;;4225530;27;20043;-58
2021/09/29 06:27:29;;;;;;;4.53;3.28;;;18.40;78.90;;;;;;4225809;27;20040;-58
2021/09/29 06:29:55;;;;;;;4.53;3.42;;;18.40;79.00;;;;;;4225267;27;20057;-57
2021/09/29 06:32:17;;;;;;;5.25;3.53;;;18.40;79.00;;;;;;4225444;27;20083;-58
2021/09/29 06:34:40;;;;;;;5.43;3.50;;;18.40;78.80;;;;;;4224898;27;20165;-57
2021/09/29 06:37:02;;;;;;;7.65;3.90;;;18.40;79.10;;;;;;4224012;27;20048;-58
2021/09/29 06:39:24;;;;;;;5.07;3.38;;;18.30;78.90;;;;;;4224541;28;20046;-57
2021/09/29 06:41:47;;;;;;;3.97;3.13;;;18.40;79.10;;;;;;4224479;27;20140;-58
2021/09/29 06:44:10;;;;;;;7.95;3.47;;;18.30;78.90;;;;;;4212131;27;20422;-59
2021/09/29 06:46:32;;;;;;;5.78;3.30;;;18.30;78.70;;;;;;4225317;27;20047;-58
2021/09/29 06:48:56;;;;;;;4.15;3.55;;;18.30;78.00;;;;;;4208588;28;20044;-58
2021/09/29 06:51:18;;;;;;;3.80;3.10;;;18.30;78.50;;;;;;4214486;28;20054;-59
2021/09/29 06:53:41;;;;;;;5.85;3.67;;;18.30;78.40;;;;;;4225117;27;20140;-59
2021/09/29 06:56:05;;;;;;;5.20;3.05;;;18.30;79.50;;;;;;4225264;27;20139;-59
2021/09/29 06:58:27;;;;;;;6.72;3.47;;;18.30;83.40;;;;;;4224916;27;20071;-59
2021/09/29 07:00:51;;;;;;;5.20;3.70;;;18.40;84.90;;;;;;4225095;27;20075;-58
2021/09/29 07:03:14;;;;;;;3.92;3.00;;;18.40;84.10;;;;;;4222400;27;20063;-58
2021/09/29 07:05:36;;;;;;;4.68;3.20;;;18.40;82.50;;;;;;4224799;27;20233;-58
2021/09/29 07:07:59;;;;;;;4.95;3.13;;;18.40;82.20;;;;;;4223332;27;20081;-59
2021/09/29 07:10:23;;;;;;;3.78;3.13;;;18.40;82.30;;;;;;4224724;27;20043;-59
2021/09/29 07:12:45;;;;;;;7.13;3.55;;;18.40;81.90;;;;;;4224634;27;20477;-58
2021/09/29 07:15:08;;;;;;;6.53;3.97;;;18.40;82.00;;;;;;4225165;28;20493;-59
2021/09/29 07:17:32;;;;;;;4.00;3.45;;;18.40;81.60;;;;;;4225138;28;20058;-57
2021/09/29 07:19:57;;;;;;;4.68;2.80;;;18.40;81.80;;;;;;4224080;28;20047;-58
2021/09/29 07:22:19;;;;;;;3.33;3.03;;;18.40;81.30;;;;;;4222192;28;20052;-58
2021/09/29 07:24:41;;;;;;;5.85;3.42;;;18.40;81.30;;;;;;4209543;27;20052;-60
2021/09/29 07:27:04;;;;;;;4.30;3.53;;;18.40;81.30;;;;;;4207958;28;20055;-58
2021/09/29 07:29:27;;;;;;;3.58;3.28;;;18.40;81.00;;;;;;4207992;28;20047;-58
2021/09/29 07:31:49;;;;;;;5.50;2.80;;;18.40;81.00;;;;;;4207815;28;20058;-57
2021/09/29 07:34:13;;;;;;;6.65;3.10;;;18.40;81.30;;;;;;4207922;28;20086;-58
2021/09/29 07:36:35;;;;;;;5.28;3.35;;;18.40;80.50;;;;;;4208594;27;20044;-58
2021/09/29 07:38:57;;;;;;;3.92;2.85;;;18.40;80.10;;;;;;4217601;28;20040;-58
2021/09/29 07:41:19;;;;;;;4.32;3.05;;;18.40;80.90;;;;;;4224410;28;20051;-58
2021/09/29 07:43:41;;;;;;;4.25;2.92;;;18.40;80.40;;;;;;4224315;28;20066;-58
2021/09/29 07:46:05;;;;;;;4.88;3.38;;;18.40;80.50;;;;;;4226080;28;20577;-59
2021/09/29 07:48:27;;;;;;;5.03;2.90;;;18.40;80.80;;;;;;4227794;27;20134;-58
2021/09/29 07:50:51;;;;;;;5.22;3.30;;;18.30;80.40;;;;;;4227668;28;20044;-57
2021/09/29 07:53:14;;;;;;;4.55;3.38;;;18.30;80.70;;;;;;4227996;27;20044;-58
2021/09/29 07:55:36;;;;;;;7.43;3.17;;;18.30;80.80;;;;;;4227304;27;20387;-58
2021/09/29 07:57:58;;;;;;;4.88;3.25;;;18.30;81.10;;;;;;4210934;28;20054;-58
2021/09/29 08:00:21;;;;;;;8.70;3.72;;;18.30;81.00;;;;;;4222722;28;20059;-58
2021/09/29 08:02:43;;;;;;;4.38;3.03;;;18.30;80.70;;;;;;4227956;28;20101;-58
2021/09/29 08:05:06;;;;;;;5.35;3.50;;;18.30;81.00;;;;;;4227928;27;20459;-58
2021/09/29 08:07:30;;;;;;;5.32;3.22;;;18.40;80.90;;;;;;4228399;27;20486;-58
2021/09/29 08:09:52;;;;;;;5.00;3.00;;;18.30;81.00;;;;;;4227327;27;20070;-58
2021/09/29 08:12:14;;;;;;;7.65;3.20;;;18.30;80.60;;;;;;4227963;27;20126;-59
2021/09/29 08:14:39;;;;;;;4.90;3.22;;;18.30;80.80;;;;;;4227855;27;20413;-58
2021/09/29 08:17:01;;;;;;;4.35;3.25;;;18.30;80.60;;;;;;4225987;27;20497;-59
2021/09/29 08:19:23;;;;;;;5.93;3.58;;;18.30;80.80;;;;;;4227539;27;20061;-59
2021/09/29 08:21:48;;;;;;;3.53;2.75;;;18.30;80.90;;;;;;4227721;28;20051;-58
2021/09/29 08:24:14;;;;;;;5.32;2.95;;;18.30;80.90;;;;;;4227741;27;20044;-59
2021/09/29 08:29:35;;;;;;;4.10;2.83;;;18.30;80.90;;;;;;4236053;27;20124;-59
2021/09/29 08:32:07;;;;;;;3.58;2.88;;;18.30;81.00;;;;;;4227433;27;20047;-58
2021/09/29 08:34:36;;;;;;;4.70;2.72;;;18.30;81.10;;;;;;4227263;27;20417;-59
2021/09/29 08:37:03;;;;;;;5.43;3.00;;;18.30;81.20;;;;;;4227134;27;20100;-58
2021/09/29 08:39:30;;;;;;;7.82;3.60;;;18.30;81.20;;;;;;4227351;27;20039;-59
2021/09/29 08:44:38;;;;;;;3.65;2.67;;;18.30;81.20;;;;;;4227321;27;20497;-58
2021/09/29 08:47:09;;;;;;;4.68;2.47;;;18.30;81.20;;;;;;4225005;27;20059;-59
2021/09/29 08:49:40;;;;;;;5.13;3.30;;;18.20;81.30;;;;;;4227152;27;20048;-58
2021/09/29 08:52:16;;;;;;;;;;;18.20;81.40;;;;;;4227635;27;20059;-58
2021/09/29 09:16:10;;;;;;;4.15;2.83;;;18.30;82.40;;;;;;4215888;27;19930;-59
2021/09/29 09:18:33;;;;;;;4.40;3.03;;;18.30;82.40;;;;;;4193551;28;20036;-58
2021/09/29 09:21:01;;;;;;;2.72;2.53;;;18.30;82.50;;;;;;4193494;28;20067;-58
2021/09/29 09:23:35;;;;;;;3.13;2.58;;;18.20;82.40;;;;;;4193050;28;20121;-58
2021/09/29 09:25:58;;;;;;;5.00;2.88;;;18.30;82.30;;;;;;4229949;27;20098;-58
2021/09/29 09:28:28;;;;;;;3.00;2.65;;;18.30;82.20;;;;;;4226548;27;20486;-58
2021/09/29 09:30:50;;;;;;;2.83;2.40;;;18.30;82.10;;;;;;4226090;27;20555;-59
2021/09/29 09:33:22;;;;;;;4.35;2.65;;;18.30;82.30;;;;;;4226359;27;20494;-58
2021/09/29 09:35:46;;;;;;;2.70;2.50;;;18.20;82.00;;;;;;4225902;27;20817;-58
2021/09/29 09:38:12;;;;;;;2.25;1.90;;;18.20;82.20;;;;;;4226614;27;20055;-58
2021/09/29 09:40:38;;;;;;;3.45;2.72;;;18.20;82.20;;;;;;4226236;27;20097;-58
2021/09/29 09:43:04;;;;;;;6.13;3.92;;;18.30;82.50;;;;;;4226099;27;20078;-59
2021/09/29 09:45:33;;;;;;;3.20;2.60;;;18.20;82.20;;;;;;4226278;27;20047;-58
2021/09/29 09:47:56;;;;;;;3.15;2.85;;;18.30;82.30;;;;;;4226451;28;20043;-58
2021/09/29 09:50:27;;;;;;;3.47;2.67;;;18.20;83.10;;;;;;4226072;27;20494;-58
2021/09/29 09:52:49;;;;;;;4.68;2.80;;;18.30;82.40;;;;;;4226001;27;20047;-58
2021/09/29 09:55:14;;;;;;;4.18;2.65;;;18.30;82.50;;;;;;4227889;27;20035;-59
2021/09/29 09:57:39;;;;;;;5.05;2.85;;;18.20;82.30;;;;;;4209251;28;20436;-58
2021/09/29 10:00:06;;;;;;;2.85;2.65;;;18.30;82.40;;;;;;4209456;28;20052;-58
2021/09/29 10:02:39;;;;;;;3.17;2.83;;;18.20;82.30;;;;;;4212913;27;20048;-59
2021/09/29 10:05:02;;;;;;;4.18;2.75;;;18.30;82.60;;;;;;4223698;27;20104;-58
2021/09/29 10:07:24;;;;;;;4.03;2.70;;;18.20;82.60;;;;;;4191097;28;20068;-58
2021/09/29 10:09:52;;;;;;;4.57;2.88;;;18.20;83.40;;;;;;4207554;28;20052;-59
2021/09/29 10:12:24;;;;;;;5.40;2.88;;;18.30;82.80;;;;;;4208680;28;20494;-59
2021/09/29 10:23:08;;;;;;;5.18;2.35;;;18.30;83.10;;;;;;4172281;28;20048;-59
2021/09/29 10:28:13;;;;;;;2.58;2.38;;;18.30;83.00;;;;;;4156141;28;20050;-60
2021/09/29 10:30:39;;;;;;;2.90;2.63;;;18.30;83.00;;;;;;4161113;28;20053;-60
2021/09/29 10:33:04;;;;;;;3.90;2.80;;;18.20;83.70;;;;;;4188853;28;20724;-61
2021/09/29 10:35:42;;;;;;;2.60;2.35;;;18.20;82.90;;;;;;4189181;28;20428;-59
2021/09/29 10:41:06;;;;;;;2.22;1.80;;;18.30;83.00;;;;;;4159354;28;20430;-60
2021/09/29 10:43:34;;;;;;;2.63;1.70;;;18.20;83.20;;;;;;4189019;28;20072;-60
2021/09/29 10:46:09;;;;;;;2.30;1.77;;;18.20;83.20;;;;;;4188147;28;20045;-59
2021/09/29 11:05:16;;;;;;;1.20;1.20;;;18.20;83.40;;;;;;4179650;28;20041;-61
2021/09/29 11:07:54;;;;;;;1.33;1.30;;;18.20;83.50;;;;;;4188193;28;20048;-60
2021/09/29 11:31:42;;;;;;;1.33;1.33;;;18.20;83.40;;;;;;4175713;28;20049;-60
2021/09/29 11:34:07;;;;;;;2.70;1.55;;;18.20;83.40;;;;;;4176435;28;20051;-61
2021/09/29 11:39:30;;;;;;;1.10;1.10;;;18.20;84.30;;;;;;4176906;28;20048;-60
2021/09/29 12:09:03;;;;;;;0.63;0.63;;;18.10;82.50;;;;;;4176406;28;20041;-60
2021/09/29 12:11:27;;;;;;;0.63;0.60;;;18.10;82.60;;;;;;4175907;28;20145;-60
2021/09/29 12:13:55;;;;;;;1.02;0.70;;;18.10;82.60;;;;;;4176461;28;20124;-60
2021/09/29 12:16:27;;;;;;;0.85;0.60;;;18.10;82.60;;;;;;4175680;28;20146;-60
2021/09/29 12:18:55;;;;;;;1.02;0.70;;;18.10;82.60;;;;;;4176106;28;20044;-60
2021/09/29 12:21:17;;;;;;;0.50;0.50;;;18.10;82.60;;;;;;4176431;28;21870;-60
2021/09/29 12:23:50;;;;;;;0.80;0.40;;;18.10;82.60;;;;;;4176075;28;20052;-60
2021/09/29 12:26:24;;;;;;;0.50;0.50;;;18.10;82.50;;;;;;4172632;28;20488;-61
2021/09/29 12:28:58;;;;;;;1.67;0.63;;;18.10;82.50;;;;;;4169073;28;20053;-60
2021/09/29 12:31:45;;;;;;;1.25;0.52;;;18.10;82.50;;;;;;4175620;28;20065;-60
2021/09/29 12:34:21;;;;;;;1.42;0.30;;;18.10;82.60;;;;;;4159574;28;20762;-60
2021/09/29 12:36:44;;;;;;;0.55;0.45;;;18.10;82.70;;;;;;4159376;28;20648;-60
2021/09/29 12:39:19;;;;;;;0.43;0.43;;;18.10;82.60;;;;;;4158996;28;20049;-61
2021/09/29 12:41:48;;;;;;;0.40;0.40;;;18.10;82.40;;;;;;4159245;28;20727;-60
2021/09/29 12:44:13;;;;;;;0.82;0.13;;;18.10;82.40;;;;;;4159508;28;20761;-60
2021/09/29 12:46:35;;;;;;;0.15;0.15;;;18.00;82.20;;;;;;4172256;28;20053;-58
2021/09/29 12:49:01;;;;;;;0.20;0.13;;;18.00;82.10;;;;;;4172504;28;20052;-60
2021/09/29 12:51:24;;;;;;;2.75;0.20;;;18.10;81.50;;;;;;4175929;28;20479;-60
2021/09/29 12:53:50;;;;;;;1.58;0.50;;;18.10;81.50;;;;;;4175597;28;20143;-60
2021/09/29 12:56:15;;;;;;;1.02;0.30;;;18.00;81.40;;;;;;4158595;28;20416;-60
2021/09/29 12:58:39;;;;;;;0.43;0.22;;;18.10;81.20;;;;;;4169939;28;20056;-61
2021/09/29 13:01:01;;;;;;;0.30;0.30;;;18.00;81.20;;;;;;4189000;28;20059;-60
2021/09/29 13:03:24;;;;;;;0.20;0.20;;;18.00;81.30;;;;;;4163708;28;20045;-60
2021/09/29 13:05:47;;;;;;;0.45;0.20;;;18.00;81.40;;;;;;4158713;28;20155;-60
2021/09/29 13:08:09;;;;;;;0.57;0.25;;;18.10;81.50;;;;;;4158821;28;20049;-60
2021/09/29 13:10:31;;;;;;;0.30;0.30;;;18.10;81.60;;;;;;4159059;28;20503;-61
2021/09/29 13:12:53;;;;;;;0.20;0.20;;;18.00;81.40;;;;;;4158987;28;20056;-61
2021/09/29 13:15:17;;;;;;;0.68;0.28;;;18.00;81.60;;;;;;4158942;28;20141;-60
2021/09/29 13:17:39;;;;;;;0.47;0.20;;;18.10;81.60;;;;;;4185884;28;20430;-60
2021/09/29 13:20:02;;;;;;;0.40;0.32;;;18.00;81.50;;;;;;4191749;28;20048;-60
2021/09/29 13:22:25;;;;;;;1.40;0.40;;;18.00;81.60;;;;;;4181979;28;20149;-60
2021/09/29 13:38:24;;;;;;;1.05;0.20;;;18.00;81.60;;;;;;4140209;28;20053;-61
2021/09/29 13:40:46;;;;;;;0.73;0.47;;;18.00;81.50;;;;;;4158548;28;20511;-61
2021/09/29 13:43:11;;;;;;;0.40;0.30;;;18.00;81.40;;;;;;4158351;28;20053;-60
2021/09/29 13:45:33;;;;;;;1.38;0.75;;;18.00;81.30;;;;;;4174033;28;20053;-60
2021/09/29 13:47:57;;;;;;;1.15;0.60;;;18.00;81.20;;;;;;4174327;28;20053;-62
2021/09/29 13:50:20;;;;;;;1.33;0.40;;;18.00;81.00;;;;;;4174372;28;20048;-60
2021/09/29 13:52:42;;;;;;;0.88;0.28;;;17.90;81.00;;;;;;4173494;28;20081;-61
2021/09/29 13:55:09;;;;;;;0.57;0.30;;;18.00;81.00;;;;;;4174706;28;20127;-61
2021/09/29 13:57:35;;;;;;;3.13;0.50;;;18.00;80.90;;;;;;4158192;28;20052;-60
2021/09/29 14:00:10;;;;;;;0.50;0.45;;;18.00;80.90;;;;;;4158364;28;20480;-60
2021/09/29 14:29:26;;;;;;;2.95;0.40;;;17.90;80.80;;;;;;4174067;28;20148;-60
2021/09/29 14:31:52;;;;;;;1.30;0.40;;;17.80;80.80;;;;;;4164719;28;20045;-60
2021/09/29 14:34:15;;;;;;;1.05;0.30;;;17.80;80.90;;;;;;4174211;28;20056;-61
2021/09/29 14:36:40;;;;;;;1.23;0.75;;;17.80;80.90;;;;;;4173879;28;20045;-61
2021/09/29 14:39:02;;;;;;;0.93;0.32;;;17.80;80.90;;;;;;4173635;28;20067;-60
2021/09/29 14:41:24;;;;;;;1.55;0.80;;;17.80;80.90;;;;;;4173789;28;20052;-61
2021/09/29 14:43:46;;;;;;;0.55;0.10;;;17.80;80.70;;;;;;4174508;28;20053;-61
2021/09/29 14:46:08;;;;;;;0.30;0.30;;;17.80;80.80;;;;;;4173939;28;20132;-61
2021/09/29 14:48:29;;;;;;;3.03;0.82;;;17.80;80.70;;;;;;4174246;28;20075;-60
2021/09/29 14:50:55;;;;;;;0.63;0.47;;;17.80;80.50;;;;;;4174385;28;20118;-60
2021/09/29 14:53:18;;;;;;;0.20;0.20;;;17.80;80.30;;;;;;4174584;28;20161;-60
2021/09/29 14:55:40;;;;;;;0.38;0.30;;;17.80;80.20;;;;;;4173916;28;20057;-59
2021/09/29 14:58:04;;;;;;;0.70;0.40;;;17.70;80.90;;;;;;4173804;28;20045;-60
2021/09/29 15:00:30;;;;;;;1.00;0.38;;;17.80;80.20;;;;;;4170211;28;20075;-60